Dyrsten — WAK5769 — position and weather

sailwx.info

Track history (hours):
 
Tides and Currents Weather Stations Pressure Air Temp Water Temp Dewpoint Dewpoint Depression Visibility Wind Speed Wind Dir Waves Ship Positions

Dyrsten

Owner: H & L AXELSSON INC, CAPE MAY, NJ. More information available from US FCC via Universal Licensing System and Coast Guard Vessel Documentation Center.

Last reported at 2017-Dec-10 13:13 UTC. Time now 2017-Dec-11 00:40 UTC.
Position N 42°18' W 070°16'.

Length 52 m.

Type: Fishing. MMSI: 367016390.

Date/timePositionNaut miles runAvg speedWind from/ knotsBaromVisibWave heightAir tempDewpointWater temp
2017-Dec-10 13:13N 42°18' W 070°16'2 8.7
2017-Dec-10 12:57N 42°19' W 070°19'4 8.2
2017-Dec-10 12:29N 42°22' W 070°23'4 8.3
2017-Dec-10 12:00N 42°24' W 070°28'4 3.9
2017-Dec-10 10:58N 42°25' W 070°22'0 0.8
2017-Dec-10 10:27N 42°25' W 070°23'0 0.8
2017-Dec-10 10:00N 42°25' W 070°23'0 0.8
2017-Dec-10 09:24N 42°26' W 070°23'0 0.8
2017-Dec-10 08:59N 42°26' W 070°23'0 0.8
2017-Dec-10 08:30N 42°27' W 070°23'1 0.8
2017-Dec-10 07:47N 42°27' W 070°23'0 0.9
2017-Dec-10 07:26N 42°28' W 070°23'1 0.9
2017-Dec-10 06:51N 42°28' W 070°23'0 0.9
2017-Dec-10 06:26N 42°28' W 070°23'0 0.8
2017-Dec-10 05:57N 42°29' W 070°23'0 0.9
2017-Dec-10 05:30N 42°29' W 070°23'0 0.9
2017-Dec-10 05:00N 42°30' W 070°23'1 1.0
2017-Dec-10 04:29N 42°30' W 070°23'1 1.0
2017-Dec-10 03:59N 42°31' W 070°23'1 1.0
2017-Dec-10 03:30N 42°31' W 070°23'1 1.0
2017-Dec-10 03:00N 42°32' W 070°23'1 1.1
2017-Dec-10 02:30N 42°32' W 070°23'1 1.2
2017-Dec-10 02:00N 42°33' W 070°23'1 1.2
2017-Dec-10 01:30N 42°33' W 070°23'2 3.5
2017-Dec-10 01:00N 42°32' W 070°24'2 4.0
2017-Dec-10 00:30N 42°30' W 070°25'2 4.3
2017-Dec-10 00:00N 42°28' W 070°25'2 4.6
2017-Dec-09 23:30N 42°25' W 070°26'1 1.9
2017-Dec-09 22:58N 42°26' W 070°27'3 5.3
2017-Dec-09 22:29N 42°23' W 070°26'1 1.2
2017-Dec-09 22:00N 42°23' W 070°26'1 2.3
2017-Dec-09 21:21N 42°23' W 070°24'2 3.6
2017-Dec-09 20:51N 42°22' W 070°22'0 1.2
2017-Dec-09 20:30N 42°22' W 070°22'2 3.5
2017-Dec-09 20:00N 42°23' W 070°24'2 3.4
2017-Dec-09 19:30N 42°23' W 070°26'1 3.0
2017-Dec-09 19:00N 42°23' W 070°28'2 3.1
2017-Dec-09 18:30N 42°25' W 070°29'0 0.9
2017-Dec-09 18:00N 42°25' W 070°29'2 3.2
2017-Dec-09 17:30N 42°24' W 070°28'2 3.4
2017-Dec-09 16:51N 42°23' W 070°26'3 8.2
2017-Dec-09 16:30N 42°24' W 070°29'1 2.2
2017-Dec-09 15:59N 42°24' W 070°28'4 7.4
2017-Dec-09 15:30N 42°22' W 070°24'5 0.4
2017-Dec-09 04:15N 42°20' W 070°18'2 8.0
2017-Dec-09 03:59N 42°21' W 070°20'4 8.2
2017-Dec-09 03:29N 42°24' W 070°24'2 4.1
2017-Dec-09 02:58N 42°25' W 070°27'1 1.8
2017-Dec-09 02:30N 42°26' W 070°26'0 0.6
2017-Dec-09 01:59N 42°26' W 070°26'2 3.2
2017-Dec-09 01:30N 42°25' W 070°25'1 2.2
2017-Dec-09 01:01N 42°25' W 070°26'0 0.6
2017-Dec-09 00:30N 42°25' W 070°26'0 0.3
2017-Dec-09 00:01N 42°25' W 070°26'2 3.8
2017-Dec-08 23:31N 42°26' W 070°28'4 8.7
2017-Dec-08 23:00N 42°23' W 070°24'4 0.5
2017-Dec-08 14:17N 42°21' W 070°19'2 8.4
2017-Dec-08 14:00N 42°23' W 070°20'4 8.7
2017-Dec-08 13:30N 42°24' W 070°26'6 4.0
2017-Dec-08 11:59N 42°24' W 070°18'1 1.2
2017-Dec-08 11:27N 42°24' W 070°19'1 1.2
2017-Dec-08 10:56N 42°24' W 070°20'1 1.2
2017-Dec-08 10:18N 42°23' W 070°21'0 1.1
2017-Dec-08 09:51N 42°23' W 070°21'0 1.0
2017-Dec-08 09:25N 42°23' W 070°22'1 1.0
2017-Dec-08 08:53N 42°23' W 070°22'0 1.0
2017-Dec-08 08:30N 42°23' W 070°23'0 0.8
2017-Dec-08 08:00N 42°22' W 070°23'1 1.1
2017-Dec-08 07:30N 42°23' W 070°24'2 3.5
2017-Dec-08 07:00N 42°23' W 070°26'0 0.5
2017-Dec-08 06:30N 42°24' W 070°26'0 0.3
2017-Dec-08 06:00N 42°24' W 070°26'1 1.3
2017-Dec-08 05:30N 42°24' W 070°26'1 2.7
2017-Dec-08 05:01N 42°25' W 070°26'2 3.6
2017-Dec-08 04:31N 42°24' W 070°26'3 5.4
2017-Dec-08 04:01N 42°26' W 070°26'0 0.1
2017-Dec-08 03:26N 42°26' W 070°26'1 2.4
2017-Dec-08 03:00N 42°25' W 070°26'1 1.6
2017-Dec-08 02:31N 42°25' W 070°26'1 2.1
2017-Dec-08 01:59N 42°26' W 070°26'1 2.9
2017-Dec-08 01:30N 42°24' W 070°26'2 3.5
2017-Dec-08 00:59N 42°26' W 070°26'2 3.5
2017-Dec-08 00:30N 42°25' W 070°25'1 2.3
2017-Dec-08 00:00N 42°24' W 070°27'3 5.9
2017-Dec-07 23:31N 42°27' W 070°29'4 8.1
2017-Dec-07 22:58N 42°30' W 070°33'4 8.4
2017-Dec-07 22:30N 42°32' W 070°37'4 8.2
2017-Dec-07 22:01N 42°35' W 070°41'2 3.6
2017-Dec-07 21:25N 42°37' W 070°39'0 0.0
2017-Dec-07 20:55N 42°37' W 070°39'0 0.0
2017-Dec-07 20:25N 42°37' W 070°39'0 0.0
2017-Dec-07 19:58N 42°37' W 070°39'0 0.0
2017-Dec-07 19:28N 42°37' W 070°39'0 0.0
2017-Dec-07 18:58N 42°37' W 070°39'0 0.0
2017-Dec-07 18:28N 42°37' W 070°39'0 0.0
2017-Dec-07 17:58N 42°37' W 070°39'0 0.0
2017-Dec-07 17:28N 42°37' W 070°39'0 0.0
2017-Dec-07 16:55N 42°37' W 070°39'0 0.0
2017-Dec-07 16:25N 42°37' W 070°39'0 0.0
2017-Dec-07 15:52N 42°37' W 070°39'0 0.0
2017-Dec-07 15:28N 42°37' W 070°39'0 0.0
2017-Dec-07 14:55N 42°37' W 070°39'0 0.0
2017-Dec-07 14:28N 42°37' W 070°39'0 0.0
2017-Dec-07 13:58N 42°37' W 070°39'0 0.0
2017-Dec-07 13:28N 42°37' W 070°39'0 0.0
2017-Dec-07 12:49N 42°37' W 070°39'0 0.0
2017-Dec-07 12:19N 42°37' W 070°39'0 0.0
2017-Dec-07 11:55N 42°37' W 070°39'0 0.0
2017-Dec-07 11:25N 42°37' W 070°39'0 0.0
2017-Dec-07 10:58N 42°37' W 070°39'0 0.0
2017-Dec-07 10:25N 42°37' W 070°39'0 0.0
2017-Dec-07 09:55N 42°37' W 070°39'0 0.0
2017-Dec-07 09:28N 42°37' W 070°39'0 0.0
2017-Dec-07 08:58N 42°37' W 070°39'0 0.0
2017-Dec-07 08:22N 42°37' W 070°39'0 0.0
2017-Dec-07 07:52N 42°37' W 070°39'0 0.0
2017-Dec-07 07:28N 42°37' W 070°39'0 0.0
2017-Dec-07 06:58N 42°37' W 070°39'0 0.0
2017-Dec-07 06:25N 42°37' W 070°39'0 0.0
2017-Dec-07 05:49N 42°37' W 070°39'0 0.0
2017-Dec-07 05:28N 42°37' W 070°39'0 0.0
2017-Dec-07 04:49N 42°37' W 070°39'0 0.0
2017-Dec-07 04:28N 42°37' W 070°39'0 0.0
2017-Dec-07 03:49N 42°37' W 070°39'0 0.0
2017-Dec-07 03:28N 42°37' W 070°39'0 0.0
2017-Dec-07 02:58N 42°37' W 070°39'0 0.0
2017-Dec-07 02:25N 42°37' W 070°39'0 0.0
2017-Dec-07 01:58N 42°37' W 070°39'0 0.0
2017-Dec-07 01:19N 42°37' W 070°39'0 0.0
2017-Dec-07 00:55N 42°37' W 070°39'0 0.0
2017-Dec-07 00:25N 42°37' W 070°39'0 0.0
2017-Dec-06 23:55N 42°37' W 070°39'0 0.0
2017-Dec-06 23:28N 42°37' W 070°39'0 0.0
2017-Dec-06 22:49N 42°37' W 070°39'0 0.0
2017-Dec-06 22:13N 42°37' W 070°39'0 0.0
2017-Dec-06 21:52N 42°37' W 070°39'0 0.0
2017-Dec-06 21:13N 42°37' W 070°39'0 0.0
2017-Dec-06 20:58N 42°37' W 070°39'  
2017-Dec-04 07:22N 42°23' W 070°28'0 0.6
2017-Dec-04 06:58N 42°23' W 070°28'1 0.6
2017-Dec-04 05:40N 42°24' W 070°29'0 0.1
2017-Dec-04 05:27N 42°24' W 070°29'0 0.9
2017-Dec-04 05:00N 42°24' W 070°29'1 2.8
2017-Dec-04 04:30N 42°25' W 070°29'0 0.4
2017-Dec-04 04:00N 42°26' W 070°29'2 3.0
2017-Dec-04 03:12N 42°24' W 070°27'1 3.1
2017-Dec-04 03:00N 42°24' W 070°26'2 3.7
2017-Dec-04 02:30N 42°25' W 070°29'1 1.3
2017-Dec-04 01:57N 42°25' W 070°30'2 4.3
2017-Dec-04 01:29N 42°25' W 070°27'1 1.4
2017-Dec-04 01:00N 42°24' W 070°27'2 3.7
2017-Dec-04 00:30N 42°26' W 070°28'1 1.7
2017-Dec-04 00:00N 42°25' W 070°28'1 1.9
2017-Dec-03 23:30N 42°24' W 070°29'0 0.1
2017-Dec-03 23:00N 42°25' W 070°29'1 2.5
2017-Dec-03 22:30N 42°26' W 070°29'0 0.2
2017-Dec-03 21:56N 42°26' W 070°29'1 3.3
2017-Dec-03 21:29N 42°24' W 070°29'1 2.3
2017-Dec-03 21:00N 42°24' W 070°28'2 3.3
2017-Dec-03 20:29N 42°25' W 070°29'0 0.8
2017-Dec-03 20:00N 42°25' W 070°29'4 7.4
2017-Dec-03 19:25N 42°25' W 070°23'4 8.3
2017-Dec-03 18:58N 42°23' W 070°18'  
2017-Dec-01 05:18N 42°19' W 070°21'2 7.8
2017-Dec-01 04:59N 42°21' W 070°23'4 7.9
2017-Dec-01 04:29N 42°23' W 070°27'4 7.9
2017-Dec-01 03:58N 42°26' W 070°31'3 7.6
2017-Dec-01 03:30N 42°29' W 070°34'4 7.7
2017-Dec-01 03:00N 42°32' W 070°38'4 7.7
2017-Dec-01 02:30N 42°35' W 070°41'2 3.9
2017-Dec-01 01:54N 42°37' W 070°39'0 0.0
2017-Dec-01 01:30N 42°37' W 070°39'0 0.0
2017-Dec-01 01:00N 42°37' W 070°39'0 0.0
2017-Dec-01 00:21N 42°37' W 070°39'0 0.0
2017-Nov-30 23:57N 42°37' W 070°39'0 0.0
2017-Nov-30 23:30N 42°37' W 070°39'0 0.0
2017-Nov-30 22:42N 42°37' W 070°39'0 0.0
2017-Nov-30 22:30N 42°37' W 070°39'0 0.0
2017-Nov-30 21:48N 42°37' W 070°39'0 0.0
2017-Nov-30 21:27N 42°37' W 070°39'0 0.0
2017-Nov-30 21:00N 42°37' W 070°39'0 0.0
2017-Nov-30 20:27N 42°37' W 070°39'0 0.0
2017-Nov-30 19:57N 42°37' W 070°39'0 0.0
2017-Nov-30 19:27N 42°37' W 070°39'0 0.0
2017-Nov-30 19:00N 42°37' W 070°39'0 0.0
2017-Nov-30 18:06N 42°37' W 070°39'0 0.0
2017-Nov-30 18:00N 42°37' W 070°39'0 0.0
2017-Nov-30 17:30N 42°37' W 070°39'0 0.0
2017-Nov-30 16:57N 42°37' W 070°39'0 0.0
2017-Nov-30 16:27N 42°37' W 070°39'0 0.0
2017-Nov-30 16:00N 42°37' W 070°39'0 0.0
2017-Nov-30 15:27N 42°37' W 070°39'0 0.0
2017-Nov-30 15:00N 42°37' W 070°39'0 0.0
2017-Nov-30 14:27N 42°37' W 070°39'0 0.0
2017-Nov-30 14:00N 42°37' W 070°39'0 0.0
2017-Nov-30 13:30N 42°37' W 070°39'  
Track history (hours):
 
Tides and Currents Weather Stations Pressure Air Temp Water Temp Dewpoint Dewpoint Depression Visibility Wind Speed Wind Dir Waves Ship Positions

Dyrsten

Owner: H & L AXELSSON INC, CAPE MAY, NJ. More information available from US FCC via Universal Licensing System and Coast Guard Vessel Documentation Center.

Last reported at 2017-Dec-10 13:13 UTC. Time now 2017-Dec-11 00:40 UTC.
Position N 42°18' W 070°16'.

Length 52 m.

Type: Fishing. MMSI: 367016390.

Date/timePositionNaut miles runAvg speedWind from/ knotsBaromVisibWave heightAir tempDewpointWater temp
2017-Dec-10 13:13N 42°18' W 070°16'2 8.7
2017-Dec-10 12:57N 42°19' W 070°19'4 8.2
2017-Dec-10 12:29N 42°22' W 070°23'4 8.3
2017-Dec-10 12:00N 42°24' W 070°28'4 3.9
2017-Dec-10 10:58N 42°25' W 070°22'0 0.8
2017-Dec-10 10:27N 42°25' W 070°23'0 0.8
2017-Dec-10 10:00N 42°25' W 070°23'0 0.8
2017-Dec-10 09:24N 42°26' W 070°23'0 0.8
2017-Dec-10 08:59N 42°26' W 070°23'0 0.8
2017-Dec-10 08:30N 42°27' W 070°23'1 0.8
2017-Dec-10 07:47N 42°27' W 070°23'0 0.9
2017-Dec-10 07:26N 42°28' W 070°23'1 0.9
2017-Dec-10 06:51N 42°28' W 070°23'0 0.9
2017-Dec-10 06:26N 42°28' W 070°23'0 0.8
2017-Dec-10 05:57N 42°29' W 070°23'0 0.9
2017-Dec-10 05:30N 42°29' W 070°23'0 0.9
2017-Dec-10 05:00N 42°30' W 070°23'1 1.0
2017-Dec-10 04:29N 42°30' W 070°23'1 1.0
2017-Dec-10 03:59N 42°31' W 070°23'1 1.0
2017-Dec-10 03:30N 42°31' W 070°23'1 1.0
2017-Dec-10 03:00N 42°32' W 070°23'1 1.1
2017-Dec-10 02:30N 42°32' W 070°23'1 1.2
2017-Dec-10 02:00N 42°33' W 070°23'1 1.2
2017-Dec-10 01:30N 42°33' W 070°23'2 3.5
2017-Dec-10 01:00N 42°32' W 070°24'2 4.0
2017-Dec-10 00:30N 42°30' W 070°25'2 4.3
2017-Dec-10 00:00N 42°28' W 070°25'2 4.6
2017-Dec-09 23:30N 42°25' W 070°26'1 1.9
2017-Dec-09 22:58N 42°26' W 070°27'3 5.3
2017-Dec-09 22:29N 42°23' W 070°26'1 1.2
2017-Dec-09 22:00N 42°23' W 070°26'1 2.3
2017-Dec-09 21:21N 42°23' W 070°24'2 3.6
2017-Dec-09 20:51N 42°22' W 070°22'0 1.2
2017-Dec-09 20:30N 42°22' W 070°22'2 3.5
2017-Dec-09 20:00N 42°23' W 070°24'2 3.4
2017-Dec-09 19:30N 42°23' W 070°26'1 3.0
2017-Dec-09 19:00N 42°23' W 070°28'2 3.1
2017-Dec-09 18:30N 42°25' W 070°29'0 0.9
2017-Dec-09 18:00N 42°25' W 070°29'2 3.2
2017-Dec-09 17:30N 42°24' W 070°28'2 3.4
2017-Dec-09 16:51N 42°23' W 070°26'3 8.2
2017-Dec-09 16:30N 42°24' W 070°29'1 2.2
2017-Dec-09 15:59N 42°24' W 070°28'4 7.4
2017-Dec-09 15:30N 42°22' W 070°24'5 0.4
2017-Dec-09 04:15N 42°20' W 070°18'2 8.0
2017-Dec-09 03:59N 42°21' W 070°20'4 8.2
2017-Dec-09 03:29N 42°24' W 070°24'2 4.1
2017-Dec-09 02:58N 42°25' W 070°27'1 1.8
2017-Dec-09 02:30N 42°26' W 070°26'0 0.6
2017-Dec-09 01:59N 42°26' W 070°26'2 3.2
2017-Dec-09 01:30N 42°25' W 070°25'1 2.2
2017-Dec-09 01:01N 42°25' W 070°26'0 0.6
2017-Dec-09 00:30N 42°25' W 070°26'0 0.3
2017-Dec-09 00:01N 42°25' W 070°26'2 3.8
2017-Dec-08 23:31N 42°26' W 070°28'4 8.7
2017-Dec-08 23:00N 42°23' W 070°24'4 0.5
2017-Dec-08 14:17N 42°21' W 070°19'2 8.4
2017-Dec-08 14:00N 42°23' W 070°20'4 8.7
2017-Dec-08 13:30N 42°24' W 070°26'6 4.0
2017-Dec-08 11:59N 42°24' W 070°18'1 1.2
2017-Dec-08 11:27N 42°24' W 070°19'1 1.2
2017-Dec-08 10:56N 42°24' W 070°20'1 1.2
2017-Dec-08 10:18N 42°23' W 070°21'0 1.1
2017-Dec-08 09:51N 42°23' W 070°21'0 1.0
2017-Dec-08 09:25N 42°23' W 070°22'1 1.0
2017-Dec-08 08:53N 42°23' W 070°22'0 1.0
2017-Dec-08 08:30N 42°23' W 070°23'0 0.8
2017-Dec-08 08:00N 42°22' W 070°23'1 1.1
2017-Dec-08 07:30N 42°23' W 070°24'2 3.5
2017-Dec-08 07:00N 42°23' W 070°26'0 0.5
2017-Dec-08 06:30N 42°24' W 070°26'0 0.3
2017-Dec-08 06:00N 42°24' W 070°26'1 1.3
2017-Dec-08 05:30N 42°24' W 070°26'1 2.7
2017-Dec-08 05:01N 42°25' W 070°26'2 3.6
2017-Dec-08 04:31N 42°24' W 070°26'3 5.4
2017-Dec-08 04:01N 42°26' W 070°26'0 0.1
2017-Dec-08 03:26N 42°26' W 070°26'1 2.4
2017-Dec-08 03:00N 42°25' W 070°26'1 1.6
2017-Dec-08 02:31N 42°25' W 070°26'1 2.1
2017-Dec-08 01:59N 42°26' W 070°26'1 2.9
2017-Dec-08 01:30N 42°24' W 070°26'2 3.5
2017-Dec-08 00:59N 42°26' W 070°26'2 3.5
2017-Dec-08 00:30N 42°25' W 070°25'1 2.3
2017-Dec-08 00:00N 42°24' W 070°27'3 5.9
2017-Dec-07 23:31N 42°27' W 070°29'4 8.1
2017-Dec-07 22:58N 42°30' W 070°33'4 8.4
2017-Dec-07 22:30N 42°32' W 070°37'4 8.2
2017-Dec-07 22:01N 42°35' W 070°41'2 3.6
2017-Dec-07 21:25N 42°37' W 070°39'0 0.0
2017-Dec-07 20:55N 42°37' W 070°39'0 0.0
2017-Dec-07 20:25N 42°37' W 070°39'0 0.0
2017-Dec-07 19:58N 42°37' W 070°39'0 0.0
2017-Dec-07 19:28N 42°37' W 070°39'0 0.0
2017-Dec-07 18:58N 42°37' W 070°39'0 0.0
2017-Dec-07 18:28N 42°37' W 070°39'0 0.0
2017-Dec-07 17:58N 42°37' W 070°39'0 0.0
2017-Dec-07 17:28N 42°37' W 070°39'0 0.0
2017-Dec-07 16:55N 42°37' W 070°39'0 0.0
2017-Dec-07 16:25N 42°37' W 070°39'0 0.0
2017-Dec-07 15:52N 42°37' W 070°39'0 0.0
2017-Dec-07 15:28N 42°37' W 070°39'0 0.0
2017-Dec-07 14:55N 42°37' W 070°39'0 0.0
2017-Dec-07 14:28N 42°37' W 070°39'0 0.0
2017-Dec-07 13:58N 42°37' W 070°39'0 0.0
2017-Dec-07 13:28N 42°37' W 070°39'0 0.0
2017-Dec-07 12:49N 42°37' W 070°39'0 0.0
2017-Dec-07 12:19N 42°37' W 070°39'0 0.0
2017-Dec-07 11:55N 42°37' W 070°39'0 0.0
2017-Dec-07 11:25N 42°37' W 070°39'0 0.0
2017-Dec-07 10:58N 42°37' W 070°39'0 0.0
2017-Dec-07 10:25N 42°37' W 070°39'0 0.0
2017-Dec-07 09:55N 42°37' W 070°39'0 0.0
2017-Dec-07 09:28N 42°37' W 070°39'0 0.0
2017-Dec-07 08:58N 42°37' W 070°39'0 0.0
2017-Dec-07 08:22N 42°37' W 070°39'0 0.0
2017-Dec-07 07:52N 42°37' W 070°39'0 0.0
2017-Dec-07 07:28N 42°37' W 070°39'0 0.0
2017-Dec-07 06:58N 42°37' W 070°39'0 0.0
2017-Dec-07 06:25N 42°37' W 070°39'0 0.0
2017-Dec-07 05:49N 42°37' W 070°39'0 0.0
2017-Dec-07 05:28N 42°37' W 070°39'0 0.0
2017-Dec-07 04:49N 42°37' W 070°39'0 0.0
2017-Dec-07 04:28N 42°37' W 070°39'0 0.0
2017-Dec-07 03:49N 42°37' W 070°39'0 0.0
2017-Dec-07 03:28N 42°37' W 070°39'0 0.0
2017-Dec-07 02:58N 42°37' W 070°39'0 0.0
2017-Dec-07 02:25N 42°37' W 070°39'0 0.0
2017-Dec-07 01:58N 42°37' W 070°39'0 0.0
2017-Dec-07 01:19N 42°37' W 070°39'0 0.0
2017-Dec-07 00:55N 42°37' W 070°39'0 0.0
2017-Dec-07 00:25N 42°37' W 070°39'0 0.0
2017-Dec-06 23:55N 42°37' W 070°39'0 0.0
2017-Dec-06 23:28N 42°37' W 070°39'0 0.0
2017-Dec-06 22:49N 42°37' W 070°39'0 0.0
2017-Dec-06 22:13N 42°37' W 070°39'0 0.0
2017-Dec-06 21:52N 42°37' W 070°39'0 0.0
2017-Dec-06 21:13N 42°37' W 070°39'0 0.0
2017-Dec-06 20:58N 42°37' W 070°39'  
2017-Dec-04 07:22N 42°23' W 070°28'0 0.6
2017-Dec-04 06:58N 42°23' W 070°28'1 0.6
2017-Dec-04 05:40N 42°24' W 070°29'0 0.1
2017-Dec-04 05:27N 42°24' W 070°29'0 0.9
2017-Dec-04 05:00N 42°24' W 070°29'1 2.8
2017-Dec-04 04:30N 42°25' W 070°29'0 0.4
2017-Dec-04 04:00N 42°26' W 070°29'2 3.0
2017-Dec-04 03:12N 42°24' W 070°27'1 3.1
2017-Dec-04 03:00N 42°24' W 070°26'2 3.7
2017-Dec-04 02:30N 42°25' W 070°29'1 1.3
2017-Dec-04 01:57N 42°25' W 070°30'2 4.3
2017-Dec-04 01:29N 42°25' W 070°27'1 1.4
2017-Dec-04 01:00N 42°24' W 070°27'2 3.7
2017-Dec-04 00:30N 42°26' W 070°28'1 1.7
2017-Dec-04 00:00N 42°25' W 070°28'1 1.9
2017-Dec-03 23:30N 42°24' W 070°29'0 0.1
2017-Dec-03 23:00N 42°25' W 070°29'1 2.5
2017-Dec-03 22:30N 42°26' W 070°29'0 0.2
2017-Dec-03 21:56N 42°26' W 070°29'1 3.3
2017-Dec-03 21:29N 42°24' W 070°29'1 2.3
2017-Dec-03 21:00N 42°24' W 070°28'2 3.3
2017-Dec-03 20:29N 42°25' W 070°29'0 0.8
2017-Dec-03 20:00N 42°25' W 070°29'4 7.4
2017-Dec-03 19:25N 42°25' W 070°23'4 8.3
2017-Dec-03 18:58N 42°23' W 070°18'  
2017-Dec-01 05:18N 42°19' W 070°21'2 7.8
2017-Dec-01 04:59N 42°21' W 070°23'4 7.9
2017-Dec-01 04:29N 42°23' W 070°27'4 7.9
2017-Dec-01 03:58N 42°26' W 070°31'3 7.6
2017-Dec-01 03:30N 42°29' W 070°34'4 7.7
2017-Dec-01 03:00N 42°32' W 070°38'4 7.7
2017-Dec-01 02:30N 42°35' W 070°41'2 3.9
2017-Dec-01 01:54N 42°37' W 070°39'0 0.0
2017-Dec-01 01:30N 42°37' W 070°39'0 0.0
2017-Dec-01 01:00N 42°37' W 070°39'0 0.0
2017-Dec-01 00:21N 42°37' W 070°39'0 0.0
2017-Nov-30 23:57N 42°37' W 070°39'0 0.0
2017-Nov-30 23:30N 42°37' W 070°39'0 0.0
2017-Nov-30 22:42N 42°37' W 070°39'0 0.0
2017-Nov-30 22:30N 42°37' W 070°39'0 0.0
2017-Nov-30 21:48N 42°37' W 070°39'0 0.0
2017-Nov-30 21:27N 42°37' W 070°39'0 0.0
2017-Nov-30 21:00N 42°37' W 070°39'0 0.0
2017-Nov-30 20:27N 42°37' W 070°39'0 0.0
2017-Nov-30 19:57N 42°37' W 070°39'0 0.0
2017-Nov-30 19:27N 42°37' W 070°39'0 0.0
2017-Nov-30 19:00N 42°37' W 070°39'0 0.0
2017-Nov-30 18:06N 42°37' W 070°39'0 0.0
2017-Nov-30 18:00N 42°37' W 070°39'0 0.0
2017-Nov-30 17:30N 42°37' W 070°39'0 0.0
2017-Nov-30 16:57N 42°37' W 070°39'0 0.0
2017-Nov-30 16:27N 42°37' W 070°39'0 0.0
2017-Nov-30 16:00N 42°37' W 070°39'0 0.0
2017-Nov-30 15:27N 42°37' W 070°39'0 0.0
2017-Nov-30 15:00N 42°37' W 070°39'0 0.0
2017-Nov-30 14:27N 42°37' W 070°39'0 0.0
2017-Nov-30 14:00N 42°37' W 070°39'0 0.0
2017-Nov-30 13:30N 42°37' W 070°39'  

Dump ship's entire track history